sensor_id;sensor_type;location;lat;lon;timestamp;P1;durP1;ratioP1;P2;durP2;ratioP2
9789;SDS011;4934;50.852;8.098;2024-03-02T00:01:40;16.02;;;8.35;;
9789;SDS011;4934;50.852;8.098;2024-03-02T00:04:05;17.17;;;8.10;;
9789;SDS011;4934;50.852;8.098;2024-03-02T00:06:33;15.68;;;8.00;;
9789;SDS011;4934;50.852;8.098;2024-03-02T00:08:59;20.20;;;8.98;;
9789;SDS011;4934;50.852;8.098;2024-03-02T00:11:24;17.02;;;8.60;;
9789;SDS011;4934;50.852;8.098;2024-03-02T00:13:52;17.17;;;8.88;;
9789;SDS011;4934;50.852;8.098;2024-03-02T00:18:45;18.13;;;9.32;;
9789;SDS011;4934;50.852;8.098;2024-03-02T00:21:10;20.40;;;9.27;;
9789;SDS011;4934;50.852;8.098;2024-03-02T00:23:38;21.27;;;9.90;;
9789;SDS011;4934;50.852;8.098;2024-03-02T00:26:04;21.13;;;10.25;;
9789;SDS011;4934;50.852;8.098;2024-03-02T00:28:31;21.95;;;10.25;;
9789;SDS011;4934;50.852;8.098;2024-03-02T00:33:40;20.70;;;10.07;;
9789;SDS011;4934;50.852;8.098;2024-03-02T00:36:10;24.15;;;10.68;;
9789;SDS011;4934;50.852;8.098;2024-03-02T00:38:54;27.35;;;12.07;;
9789;SDS011;4934;50.852;8.098;2024-03-02T00:41:24;26.92;;;12.05;;
9789;SDS011;4934;50.852;8.098;2024-03-02T00:44:03;21.45;;;11.05;;
9789;SDS011;4934;50.852;8.098;2024-03-02T00:46:34;21.63;;;10.85;;
9789;SDS011;4934;50.852;8.098;2024-03-02T00:49:05;26.30;;;12.70;;
9789;SDS011;4934;50.852;8.098;2024-03-02T00:51:37;28.48;;;12.88;;
9789;SDS011;4934;50.852;8.098;2024-03-02T00:54:03;22.42;;;11.35;;
9789;SDS011;4934;50.852;8.098;2024-03-02T00:56:30;22.70;;;11.88;;
9789;SDS011;4934;50.852;8.098;2024-03-02T00:58:57;26.73;;;12.57;;
9789;SDS011;4934;50.852;8.098;2024-03-02T01:01:23;24.38;;;12.77;;
9789;SDS011;4934;50.852;8.098;2024-03-02T01:03:49;27.42;;;12.77;;
9789;SDS011;4934;50.852;8.098;2024-03-02T01:06:15;27.45;;;13.32;;
9789;SDS011;4934;50.852;8.098;2024-03-02T01:08:42;30.60;;;14.60;;
9789;SDS011;4934;50.852;8.098;2024-03-02T01:11:07;32.90;;;15.52;;
9789;SDS011;4934;50.852;8.098;2024-03-02T01:13:33;30.67;;;14.52;;
9789;SDS011;4934;50.852;8.098;2024-03-02T01:15:59;30.05;;;14.40;;
9789;SDS011;4934;50.852;8.098;2024-03-02T01:18:25;34.05;;;15.23;;
9789;SDS011;4934;50.852;8.098;2024-03-02T01:20:51;32.05;;;15.05;;
9789;SDS011;4934;50.852;8.098;2024-03-02T01:23:18;31.83;;;14.65;;
9789;SDS011;4934;50.852;8.098;2024-03-02T01:25:44;37.47;;;15.18;;
9789;SDS011;4934;50.852;8.098;2024-03-02T01:28:11;32.33;;;14.63;;
9789;SDS011;4934;50.852;8.098;2024-03-02T01:30:37;30.50;;;14.13;;
9789;SDS011;4934;50.852;8.098;2024-03-02T01:33:03;32.35;;;14.77;;
9789;SDS011;4934;50.852;8.098;2024-03-02T01:35:30;35.00;;;14.88;;
9789;SDS011;4934;50.852;8.098;2024-03-02T01:37:56;32.85;;;14.75;;
9789;SDS011;4934;50.852;8.098;2024-03-02T01:40:21;35.25;;;15.13;;
9789;SDS011;4934;50.852;8.098;2024-03-02T01:42:51;37.78;;;15.98;;
9789;SDS011;4934;50.852;8.098;2024-03-02T01:45:17;37.97;;;15.15;;
9789;SDS011;4934;50.852;8.098;2024-03-02T01:47:43;35.22;;;14.40;;
9789;SDS011;4934;50.852;8.098;2024-03-02T01:50:08;36.60;;;16.05;;
9789;SDS011;4934;50.852;8.098;2024-03-02T01:52:36;31.23;;;15.27;;
9789;SDS011;4934;50.852;8.098;2024-03-02T01:55:02;36.97;;;16.42;;
9789;SDS011;4934;50.852;8.098;2024-03-02T01:57:28;31.75;;;14.40;;
9789;SDS011;4934;50.852;8.098;2024-03-02T01:59:54;39.42;;;15.93;;
9789;SDS011;4934;50.852;8.098;2024-03-02T02:02:20;32.30;;;15.10;;
9789;SDS011;4934;50.852;8.098;2024-03-02T02:04:46;32.85;;;14.93;;
9789;SDS011;4934;50.852;8.098;2024-03-02T02:07:12;36.92;;;14.88;;
9789;SDS011;4934;50.852;8.098;2024-03-02T02:09:39;36.42;;;15.55;;
9789;SDS011;4934;50.852;8.098;2024-03-02T02:12:08;30.85;;;14.00;;
9789;SDS011;4934;50.852;8.098;2024-03-02T02:14:35;36.58;;;15.88;;
9789;SDS011;4934;50.852;8.098;2024-03-02T02:17:01;35.40;;;15.00;;
9789;SDS011;4934;50.852;8.098;2024-03-02T02:19:26;35.80;;;14.73;;
9789;SDS011;4934;50.852;8.098;2024-03-02T02:21:52;35.05;;;15.02;;
9789;SDS011;4934;50.852;8.098;2024-03-02T02:24:17;32.10;;;15.25;;
9789;SDS011;4934;50.852;8.098;2024-03-02T02:26:43;32.30;;;15.10;;
9789;SDS011;4934;50.852;8.098;2024-03-02T02:29:09;37.38;;;16.02;;
9789;SDS011;4934;50.852;8.098;2024-03-02T02:31:38;34.97;;;14.55;;
9789;SDS011;4934;50.852;8.098;2024-03-02T02:34:05;33.63;;;15.77;;
9789;SDS011;4934;50.852;8.098;2024-03-02T02:36:31;32.95;;;14.88;;
9789;SDS011;4934;50.852;8.098;2024-03-02T02:38:59;32.00;;;15.43;;
9789;SDS011;4934;50.852;8.098;2024-03-02T02:41:31;32.40;;;14.23;;
9789;SDS011;4934;50.852;8.098;2024-03-02T02:43:57;41.00;;;16.42;;
9789;SDS011;4934;50.852;8.098;2024-03-02T02:46:23;28.77;;;14.07;;
9789;SDS011;4934;50.852;8.098;2024-03-02T02:48:48;34.80;;;15.35;;
9789;SDS011;4934;50.852;8.098;2024-03-02T02:51:14;29.27;;;14.27;;
9789;SDS011;4934;50.852;8.098;2024-03-02T02:53:40;34.88;;;15.10;;
9789;SDS011;4934;50.852;8.098;2024-03-02T02:56:08;32.97;;;14.13;;
9789;SDS011;4934;50.852;8.098;2024-03-02T02:58:34;34.85;;;15.48;;
9789;SDS011;4934;50.852;8.098;2024-03-02T03:01:00;32.28;;;14.93;;
9789;SDS011;4934;50.852;8.098;2024-03-02T03:03:26;33.13;;;16.00;;
9789;SDS011;4934;50.852;8.098;2024-03-02T03:05:51;32.50;;;14.63;;
9789;SDS011;4934;50.852;8.098;2024-03-02T03:08:17;30.77;;;14.45;;
9789;SDS011;4934;50.852;8.098;2024-03-02T03:10:43;31.00;;;13.88;;
9789;SDS011;4934;50.852;8.098;2024-03-02T03:13:08;32.67;;;15.13;;
9789;SDS011;4934;50.852;8.098;2024-03-02T03:15:34;38.25;;;15.02;;
9789;SDS011;4934;50.852;8.098;2024-03-02T03:18:01;36.90;;;14.68;;
9789;SDS011;4934;50.852;8.098;2024-03-02T03:20:28;33.95;;;14.63;;
9789;SDS011;4934;50.852;8.098;2024-03-02T03:22:54;33.30;;;14.27;;
9789;SDS011;4934;50.852;8.098;2024-03-02T03:25:20;35.13;;;15.00;;
9789;SDS011;4934;50.852;8.098;2024-03-02T03:27:46;33.70;;;14.82;;
9789;SDS011;4934;50.852;8.098;2024-03-02T03:30:12;32.90;;;14.52;;
9789;SDS011;4934;50.852;8.098;2024-03-02T03:32:38;31.40;;;14.98;;
9789;SDS011;4934;50.852;8.098;2024-03-02T03:35:04;29.75;;;14.43;;
9789;SDS011;4934;50.852;8.098;2024-03-02T03:37:29;33.00;;;14.93;;
9789;SDS011;4934;50.852;8.098;2024-03-02T03:39:58;30.60;;;14.45;;
9789;SDS011;4934;50.852;8.098;2024-03-02T03:42:24;29.65;;;14.70;;
9789;SDS011;4934;50.852;8.098;2024-03-02T03:44:50;33.80;;;13.93;;
9789;SDS011;4934;50.852;8.098;2024-03-02T03:47:15;32.65;;;14.13;;
9789;SDS011;4934;50.852;8.098;2024-03-02T03:49:41;42.13;;;16.67;;
9789;SDS011;4934;50.852;8.098;2024-03-02T03:52:06;29.10;;;13.57;;
9789;SDS011;4934;50.852;8.098;2024-03-02T03:54:32;34.97;;;14.65;;
9789;SDS011;4934;50.852;8.098;2024-03-02T03:56:57;36.33;;;15.30;;
9789;SDS011;4934;50.852;8.098;2024-03-02T03:59:23;31.70;;;14.15;;
9789;SDS011;4934;50.852;8.098;2024-03-02T04:01:49;30.67;;;14.18;;
9789;SDS011;4934;50.852;8.098;2024-03-02T04:04:14;34.90;;;13.50;;
9789;SDS011;4934;50.852;8.098;2024-03-02T04:06:40;39.33;;;14.32;;
9789;SDS011;4934;50.852;8.098;2024-03-02T04:09:05;32.05;;;15.27;;
9789;SDS011;4934;50.852;8.098;2024-03-02T04:11:31;31.27;;;13.85;;
9789;SDS011;4934;50.852;8.098;2024-03-02T04:13:57;37.13;;;16.98;;
9789;SDS011;4934;50.852;8.098;2024-03-02T04:16:22;45.05;;;16.13;;
9789;SDS011;4934;50.852;8.098;2024-03-02T04:18:48;36.33;;;15.73;;
9789;SDS011;4934;50.852;8.098;2024-03-02T04:21:13;37.22;;;16.10;;
9789;SDS011;4934;50.852;8.098;2024-03-02T04:23:39;36.88;;;16.05;;
9789;SDS011;4934;50.852;8.098;2024-03-02T04:26:04;34.95;;;15.60;;
9789;SDS011;4934;50.852;8.098;2024-03-02T04:28:30;32.28;;;14.93;;
9789;SDS011;4934;50.852;8.098;2024-03-02T04:30:55;32.35;;;14.43;;
9789;SDS011;4934;50.852;8.098;2024-03-02T04:33:21;36.08;;;14.73;;
9789;SDS011;4934;50.852;8.098;2024-03-02T04:35:47;33.83;;;13.43;;
9789;SDS011;4934;50.852;8.098;2024-03-02T04:38:12;38.47;;;16.15;;
9789;SDS011;4934;50.852;8.098;2024-03-02T04:40:38;37.25;;;15.38;;
9789;SDS011;4934;50.852;8.098;2024-03-02T04:43:03;36.60;;;14.38;;
9789;SDS011;4934;50.852;8.098;2024-03-02T04:45:29;40.88;;;15.90;;
9789;SDS011;4934;50.852;8.098;2024-03-02T04:47:55;40.70;;;15.15;;
9789;SDS011;4934;50.852;8.098;2024-03-02T04:50:20;35.00;;;15.50;;
9789;SDS011;4934;50.852;8.098;2024-03-02T04:52:46;37.30;;;14.73;;
9789;SDS011;4934;50.852;8.098;2024-03-02T04:55:11;36.33;;;15.18;;
9789;SDS011;4934;50.852;8.098;2024-03-02T04:57:52;36.35;;;15.70;;
9789;SDS011;4934;50.852;8.098;2024-03-02T05:00:19;40.50;;;15.02;;
9789;SDS011;4934;50.852;8.098;2024-03-02T05:02:45;42.17;;;16.05;;
9789;SDS011;4934;50.852;8.098;2024-03-02T05:05:11;32.47;;;15.13;;
9789;SDS011;4934;50.852;8.098;2024-03-02T05:07:37;36.50;;;15.52;;
9789;SDS011;4934;50.852;8.098;2024-03-02T05:10:02;37.95;;;15.68;;
9789;SDS011;4934;50.852;8.098;2024-03-02T05:12:28;35.55;;;15.18;;
9789;SDS011;4934;50.852;8.098;2024-03-02T05:15:20;39.97;;;15.60;;
9789;SDS011;4934;50.852;8.098;2024-03-02T05:17:46;36.03;;;14.38;;
9789;SDS011;4934;50.852;8.098;2024-03-02T05:20:12;36.03;;;14.73;;
9789;SDS011;4934;50.852;8.098;2024-03-02T05:22:38;38.47;;;15.52;;
9789;SDS011;4934;50.852;8.098;2024-03-02T05:25:04;37.67;;;15.70;;
9789;SDS011;4934;50.852;8.098;2024-03-02T05:27:31;40.22;;;16.20;;
9789;SDS011;4934;50.852;8.098;2024-03-02T05:29:57;35.28;;;15.90;;
9789;SDS011;4934;50.852;8.098;2024-03-02T05:32:23;37.33;;;16.02;;
9789;SDS011;4934;50.852;8.098;2024-03-02T05:34:49;32.83;;;14.55;;
9789;SDS011;4934;50.852;8.098;2024-03-02T05:37:15;41.60;;;16.08;;
9789;SDS011;4934;50.852;8.098;2024-03-02T05:39:41;36.00;;;15.20;;
9789;SDS011;4934;50.852;8.098;2024-03-02T05:42:08;32.17;;;13.50;;
9789;SDS011;4934;50.852;8.098;2024-03-02T05:44:34;33.72;;;13.73;;
9789;SDS011;4934;50.852;8.098;2024-03-02T05:47:00;35.75;;;15.13;;
9789;SDS011;4934;50.852;8.098;2024-03-02T05:49:25;33.95;;;14.27;;
9789;SDS011;4934;50.852;8.098;2024-03-02T05:51:51;32.83;;;13.80;;
9789;SDS011;4934;50.852;8.098;2024-03-02T05:54:16;31.50;;;13.25;;
9789;SDS011;4934;50.852;8.098;2024-03-02T05:56:42;35.70;;;13.63;;
9789;SDS011;4934;50.852;8.098;2024-03-02T05:59:08;31.92;;;13.25;;
9789;SDS011;4934;50.852;8.098;2024-03-02T06:01:44;28.20;;;12.75;;
9789;SDS011;4934;50.852;8.098;2024-03-02T06:04:16;29.35;;;12.82;;
9789;SDS011;4934;50.852;8.098;2024-03-02T06:06:42;33.83;;;12.73;;
9789;SDS011;4934;50.852;8.098;2024-03-02T06:09:08;32.63;;;12.25;;
9789;SDS011;4934;50.852;8.098;2024-03-02T06:11:38;29.90;;;12.10;;
9789;SDS011;4934;50.852;8.098;2024-03-02T06:14:05;30.40;;;13.27;;
9789;SDS011;4934;50.852;8.098;2024-03-02T06:16:34;32.15;;;12.65;;
9789;SDS011;4934;50.852;8.098;2024-03-02T06:19:00;37.45;;;13.80;;
9789;SDS011;4934;50.852;8.098;2024-03-02T06:21:26;34.72;;;13.23;;
9789;SDS011;4934;50.852;8.098;2024-03-02T06:23:52;36.47;;;13.90;;
9789;SDS011;4934;50.852;8.098;2024-03-02T06:26:18;35.33;;;13.52;;
9789;SDS011;4934;50.852;8.098;2024-03-02T06:28:44;32.28;;;13.50;;
9789;SDS011;4934;50.852;8.098;2024-03-02T06:31:10;34.65;;;14.00;;
9789;SDS011;4934;50.852;8.098;2024-03-02T06:33:36;27.63;;;12.27;;
9789;SDS011;4934;50.852;8.098;2024-03-02T06:36:02;31.13;;;13.48;;
9789;SDS011;4934;50.852;8.098;2024-03-02T06:38:28;30.00;;;11.93;;
9789;SDS011;4934;50.852;8.098;2024-03-02T06:40:53;33.22;;;14.98;;
9789;SDS011;4934;50.852;8.098;2024-03-02T06:43:20;33.42;;;14.20;;
9789;SDS011;4934;50.852;8.098;2024-03-02T06:48:15;29.40;;;12.10;;
9789;SDS011;4934;50.852;8.098;2024-03-02T06:50:45;31.40;;;12.63;;
9789;SDS011;4934;50.852;8.098;2024-03-02T06:53:13;24.10;;;11.45;;
9789;SDS011;4934;50.852;8.098;2024-03-02T06:55:42;29.80;;;13.65;;
9789;SDS011;4934;50.852;8.098;2024-03-02T06:58:09;38.35;;;13.98;;
9789;SDS011;4934;50.852;8.098;2024-03-02T07:00:35;32.58;;;13.07;;
9789;SDS011;4934;50.852;8.098;2024-03-02T07:03:00;35.10;;;13.63;;
9789;SDS011;4934;50.852;8.098;2024-03-02T07:05:26;35.35;;;12.65;;
9789;SDS011;4934;50.852;8.098;2024-03-02T07:07:51;31.40;;;12.45;;
9789;SDS011;4934;50.852;8.098;2024-03-02T07:10:17;31.83;;;13.80;;
9789;SDS011;4934;50.852;8.098;2024-03-02T07:12:42;32.17;;;14.70;;
9789;SDS011;4934;50.852;8.098;2024-03-02T07:15:09;32.15;;;13.55;;
9789;SDS011;4934;50.852;8.098;2024-03-02T07:17:55;29.85;;;13.20;;
9789;SDS011;4934;50.852;8.098;2024-03-02T07:20:20;31.73;;;12.60;;
9789;SDS011;4934;50.852;8.098;2024-03-02T07:22:46;31.60;;;13.45;;
9789;SDS011;4934;50.852;8.098;2024-03-02T07:25:12;28.30;;;12.20;;
9789;SDS011;4934;50.852;8.098;2024-03-02T07:27:38;30.20;;;13.05;;
9789;SDS011;4934;50.852;8.098;2024-03-02T07:30:04;28.17;;;11.65;;
9789;SDS011;4934;50.852;8.098;2024-03-02T07:32:31;29.20;;;12.18;;
9789;SDS011;4934;50.852;8.098;2024-03-02T07:34:56;26.33;;;11.57;;
9789;SDS011;4934;50.852;8.098;2024-03-02T07:37:22;31.30;;;12.60;;
9789;SDS011;4934;50.852;8.098;2024-03-02T07:39:48;26.90;;;10.43;;
9789;SDS011;4934;50.852;8.098;2024-03-02T07:42:14;21.70;;;10.00;;
9789;SDS011;4934;50.852;8.098;2024-03-02T07:44:40;24.05;;;10.65;;
9789;SDS011;4934;50.852;8.098;2024-03-02T07:47:06;21.42;;;10.85;;
9789;SDS011;4934;50.852;8.098;2024-03-02T07:49:31;26.30;;;12.07;;
9789;SDS011;4934;50.852;8.098;2024-03-02T07:51:57;19.73;;;9.57;;
9789;SDS011;4934;50.852;8.098;2024-03-02T07:54:23;26.92;;;11.57;;
9789;SDS011;4934;50.852;8.098;2024-03-02T07:56:49;22.65;;;10.35;;
9789;SDS011;4934;50.852;8.098;2024-03-02T07:59:15;24.05;;;10.30;;
9789;SDS011;4934;50.852;8.098;2024-03-02T08:01:40;19.45;;;9.02;;
9789;SDS011;4934;50.852;8.098;2024-03-02T08:04:06;23.52;;;10.60;;
9789;SDS011;4934;50.852;8.098;2024-03-02T08:06:32;22.63;;;10.13;;
9789;SDS011;4934;50.852;8.098;2024-03-02T08:08:58;20.88;;;9.00;;
9789;SDS011;4934;50.852;8.098;2024-03-02T08:11:25;18.73;;;9.32;;
9789;SDS011;4934;50.852;8.098;2024-03-02T08:13:52;21.60;;;8.73;;
9789;SDS011;4934;50.852;8.098;2024-03-02T08:16:20;22.02;;;9.55;;
9789;SDS011;4934;50.852;8.098;2024-03-02T08:18:50;23.30;;;9.85;;
9789;SDS011;4934;50.852;8.098;2024-03-02T08:21:17;23.77;;;9.52;;
9789;SDS011;4934;50.852;8.098;2024-03-02T08:23:43;18.85;;;8.57;;
9789;SDS011;4934;50.852;8.098;2024-03-02T08:26:09;23.00;;;9.77;;
9789;SDS011;4934;50.852;8.098;2024-03-02T08:28:35;20.13;;;9.60;;
9789;SDS011;4934;50.852;8.098;2024-03-02T08:31:02;19.23;;;9.05;;
9789;SDS011;4934;50.852;8.098;2024-03-02T08:33:28;21.20;;;10.68;;
9789;SDS011;4934;50.852;8.098;2024-03-02T08:35:54;24.23;;;10.02;;
9789;SDS011;4934;50.852;8.098;2024-03-02T08:38:20;20.38;;;9.85;;
9789;SDS011;4934;50.852;8.098;2024-03-02T08:40:45;18.10;;;8.43;;
9789;SDS011;4934;50.852;8.098;2024-03-02T08:43:11;18.13;;;8.90;;
9789;SDS011;4934;50.852;8.098;2024-03-02T08:45:37;20.60;;;9.40;;
9789;SDS011;4934;50.852;8.098;2024-03-02T08:48:04;22.33;;;9.18;;
9789;SDS011;4934;50.852;8.098;2024-03-02T08:50:33;17.08;;;8.27;;
9789;SDS011;4934;50.852;8.098;2024-03-02T08:52:58;18.58;;;7.85;;
9789;SDS011;4934;50.852;8.098;2024-03-02T08:55:24;12.93;;;7.13;;
9789;SDS011;4934;50.852;8.098;2024-03-02T08:57:50;15.25;;;7.38;;
9789;SDS011;4934;50.852;8.098;2024-03-02T09:00:15;14.00;;;7.40;;
9789;SDS011;4934;50.852;8.098;2024-03-02T09:02:43;18.50;;;8.13;;
9789;SDS011;4934;50.852;8.098;2024-03-02T09:05:09;18.65;;;7.93;;
9789;SDS011;4934;50.852;8.098;2024-03-02T09:07:35;16.92;;;7.55;;
9789;SDS011;4934;50.852;8.098;2024-03-02T09:10:01;13.15;;;6.85;;
9789;SDS011;4934;50.852;8.098;2024-03-02T09:12:26;16.70;;;8.07;;
9789;SDS011;4934;50.852;8.098;2024-03-02T09:14:52;17.05;;;7.55;;
9789;SDS011;4934;50.852;8.098;2024-03-02T09:17:17;14.95;;;7.32;;
9789;SDS011;4934;50.852;8.098;2024-03-02T09:19:43;15.23;;;7.43;;
9789;SDS011;4934;50.852;8.098;2024-03-02T09:22:09;13.27;;;6.72;;
9789;SDS011;4934;50.852;8.098;2024-03-02T09:24:34;13.73;;;6.93;;
9789;SDS011;4934;50.852;8.098;2024-03-02T09:27:00;13.20;;;6.25;;
9789;SDS011;4934;50.852;8.098;2024-03-02T09:29:25;11.50;;;6.07;;
9789;SDS011;4934;50.852;8.098;2024-03-02T09:31:51;13.57;;;6.97;;
9789;SDS011;4934;50.852;8.098;2024-03-02T09:34:18;10.65;;;5.93;;
9789;SDS011;4934;50.852;8.098;2024-03-02T09:36:43;11.90;;;5.60;;
9789;SDS011;4934;50.852;8.098;2024-03-02T09:39:10;12.13;;;6.93;;
9789;SDS011;4934;50.852;8.098;2024-03-02T09:41:38;14.48;;;6.32;;
9789;SDS011;4934;50.852;8.098;2024-03-02T09:44:07;14.13;;;5.82;;
9789;SDS011;4934;50.852;8.098;2024-03-02T09:46:33;11.02;;;5.25;;
9789;SDS011;4934;50.852;8.098;2024-03-02T09:49:00;10.82;;;4.30;;
9789;SDS011;4934;50.852;8.098;2024-03-02T09:51:26;8.00;;;4.57;;
9789;SDS011;4934;50.852;8.098;2024-03-02T09:53:51;7.47;;;3.78;;
9789;SDS011;4934;50.852;8.098;2024-03-02T09:56:19;9.02;;;3.78;;
9789;SDS011;4934;50.852;8.098;2024-03-02T09:58:45;7.72;;;2.40;;
9789;SDS011;4934;50.852;8.098;2024-03-02T10:01:13;6.18;;;2.40;;
9789;SDS011;4934;50.852;8.098;2024-03-02T10:03:39;5.05;;;2.28;;
9789;SDS011;4934;50.852;8.098;2024-03-02T10:08:50;5.07;;;2.30;;
9789;SDS011;4934;50.852;8.098;2024-03-02T10:11:30;5.43;;;3.30;;
9789;SDS011;4934;50.852;8.098;2024-03-02T10:14:10;9.18;;;4.00;;
9789;SDS011;4934;50.852;8.098;2024-03-02T10:16:42;11.75;;;4.88;;
9789;SDS011;4934;50.852;8.098;2024-03-02T10:19:15;10.25;;;5.15;;
9789;SDS011;4934;50.852;8.098;2024-03-02T10:21:42;13.88;;;5.43;;
9789;SDS011;4934;50.852;8.098;2024-03-02T10:24:07;8.88;;;4.88;;
9789;SDS011;4934;50.852;8.098;2024-03-02T10:26:33;9.80;;;4.85;;
9789;SDS011;4934;50.852;8.098;2024-03-02T10:28:58;8.90;;;5.38;;
9789;SDS011;4934;50.852;8.098;2024-03-02T10:31:24;11.18;;;5.43;;
9789;SDS011;4934;50.852;8.098;2024-03-02T10:33:54;13.13;;;5.50;;
9789;SDS011;4934;50.852;8.098;2024-03-02T10:36:20;10.43;;;5.18;;
9789;SDS011;4934;50.852;8.098;2024-03-02T10:38:46;9.65;;;5.00;;
9789;SDS011;4934;50.852;8.098;2024-03-02T10:41:19;10.32;;;4.47;;
9789;SDS011;4934;50.852;8.098;2024-03-02T10:43:48;6.75;;;4.72;;
9789;SDS011;4934;50.852;8.098;2024-03-02T10:46:18;10.27;;;4.78;;
9789;SDS011;4934;50.852;8.098;2024-03-02T10:48:45;9.80;;;4.85;;
9789;SDS011;4934;50.852;8.098;2024-03-02T10:51:11;9.40;;;4.57;;
9789;SDS011;4934;50.852;8.098;2024-03-02T10:53:37;7.88;;;3.90;;
9789;SDS011;4934;50.852;8.098;2024-03-02T10:56:02;8.10;;;4.18;;
9789;SDS011;4934;50.852;8.098;2024-03-02T10:58:33;5.97;;;3.28;;
9789;SDS011;4934;50.852;8.098;2024-03-02T11:01:00;4.82;;;2.95;;
9789;SDS011;4934;50.852;8.098;2024-03-02T11:03:29;4.38;;;2.10;;
9789;SDS011;4934;50.852;8.098;2024-03-02T11:05:58;5.07;;;1.90;;
9789;SDS011;4934;50.852;8.098;2024-03-02T11:08:25;4.03;;;2.22;;
9789;SDS011;4934;50.852;8.098;2024-03-02T11:11:01;3.47;;;1.70;;
9789;SDS011;4934;50.852;8.098;2024-03-02T11:13:32;2.78;;;1.85;;
9789;SDS011;4934;50.852;8.098;2024-03-02T11:16:12;3.55;;;1.80;;
9789;SDS011;4934;50.852;8.098;2024-03-02T11:18:46;4.65;;;1.60;;
9789;SDS011;4934;50.852;8.098;2024-03-02T11:21:14;3.15;;;1.67;;
9789;SDS011;4934;50.852;8.098;2024-03-02T11:23:40;2.47;;;1.48;;
9789;SDS011;4934;50.852;8.098;2024-03-02T11:28:51;1.77;;;1.30;;
9789;SDS011;4934;50.852;8.098;2024-03-02T11:33:42;4.10;;;1.35;;
9789;SDS011;4934;50.852;8.098;2024-03-02T11:36:09;2.17;;;1.38;;
9789;SDS011;4934;50.852;8.098;2024-03-02T11:38:35;2.40;;;1.65;;
9789;SDS011;4934;50.852;8.098;2024-03-02T11:41:10;2.95;;;2.00;;
9789;SDS011;4934;50.852;8.098;2024-03-02T11:43:39;3.10;;;1.38;;
9789;SDS011;4934;50.852;8.098;2024-03-02T11:46:06;2.55;;;1.50;;
9789;SDS011;4934;50.852;8.098;2024-03-02T11:48:32;4.57;;;1.42;;
9789;SDS011;4934;50.852;8.098;2024-03-02T11:51:00;2.28;;;1.27;;
9789;SDS011;4934;50.852;8.098;2024-03-02T11:53:26;2.95;;;1.20;;
9789;SDS011;4934;50.852;8.098;2024-03-02T11:55:55;2.27;;;1.10;;
9789;SDS011;4934;50.852;8.098;2024-03-02T11:58:21;2.85;;;1.25;;
9789;SDS011;4934;50.852;8.098;2024-03-02T12:00:52;5.15;;;1.27;;
9789;SDS011;4934;50.852;8.098;2024-03-02T12:03:20;2.33;;;1.70;;
9789;SDS011;4934;50.852;8.098;2024-03-02T12:05:50;4.82;;;1.45;;
9789;SDS011;4934;50.852;8.098;2024-03-02T12:08:20;4.65;;;1.15;;
9789;SDS011;4934;50.852;8.098;2024-03-02T12:10:56;1.40;;;1.08;;
9789;SDS011;4934;50.852;8.098;2024-03-02T12:13:23;3.03;;;1.30;;
9789;SDS011;4934;50.852;8.098;2024-03-02T12:15:52;2.13;;;1.20;;
9789;SDS011;4934;50.852;8.098;2024-03-02T12:18:20;3.25;;;1.30;;
9789;SDS011;4934;50.852;8.098;2024-03-02T12:20:45;2.22;;;1.30;;
9789;SDS011;4934;50.852;8.098;2024-03-02T12:23:13;4.00;;;1.55;;
9789;SDS011;4934;50.852;8.098;2024-03-02T12:25:39;1.77;;;1.05;;
9789;SDS011;4934;50.852;8.098;2024-03-02T12:28:06;4.95;;;1.30;;
9789;SDS011;4934;50.852;8.098;2024-03-02T12:30:32;3.45;;;1.02;;
9789;SDS011;4934;50.852;8.098;2024-03-02T12:35:26;2.20;;;1.20;;
9789;SDS011;4934;50.852;8.098;2024-03-02T12:37:52;2.55;;;1.10;;
9789;SDS011;4934;50.852;8.098;2024-03-02T12:40:19;2.45;;;1.23;;
9789;SDS011;4934;50.852;8.098;2024-03-02T12:42:47;2.42;;;1.17;;
9789;SDS011;4934;50.852;8.098;2024-03-02T12:45:13;4.43;;;1.02;;
9789;SDS011;4934;50.852;8.098;2024-03-02T12:47:40;1.70;;;0.95;;
9789;SDS011;4934;50.852;8.098;2024-03-02T12:50:07;1.30;;;1.02;;
9789;SDS011;4934;50.852;8.098;2024-03-02T12:52:34;4.78;;;1.60;;
9789;SDS011;4934;50.852;8.098;2024-03-02T12:55:01;1.52;;;1.20;;
9789;SDS011;4934;50.852;8.098;2024-03-02T12:57:29;1.10;;;1.00;;
9789;SDS011;4934;50.852;8.098;2024-03-02T12:59:59;1.85;;;1.00;;
9789;SDS011;4934;50.852;8.098;2024-03-02T13:02:35;2.42;;;1.30;;
9789;SDS011;4934;50.852;8.098;2024-03-02T13:05:02;1.55;;;0.90;;
9789;SDS011;4934;50.852;8.098;2024-03-02T13:07:28;1.55;;;1.10;;
9789;SDS011;4934;50.852;8.098;2024-03-02T13:09:54;3.97;;;1.00;;
9789;SDS011;4934;50.852;8.098;2024-03-02T13:12:21;4.43;;;1.25;;
9789;SDS011;4934;50.852;8.098;2024-03-02T13:14:49;4.30;;;1.23;;
9789;SDS011;4934;50.852;8.098;2024-03-02T13:17:17;2.28;;;0.90;;
9789;SDS011;4934;50.852;8.098;2024-03-02T13:19:50;2.17;;;1.00;;
9789;SDS011;4934;50.852;8.098;2024-03-02T13:22:20;1.17;;;0.80;;
9789;SDS011;4934;50.852;8.098;2024-03-02T13:24:46;1.60;;;0.90;;
9789;SDS011;4934;50.852;8.098;2024-03-02T13:27:13;5.20;;;2.05;;
9789;SDS011;4934;50.852;8.098;2024-03-02T13:29:38;2.72;;;1.08;;
9789;SDS011;4934;50.852;8.098;2024-03-02T13:32:04;2.33;;;1.48;;
9789;SDS011;4934;50.852;8.098;2024-03-02T13:34:30;1.10;;;0.90;;
9789;SDS011;4934;50.852;8.098;2024-03-02T13:36:55;1.52;;;0.90;;
9789;SDS011;4934;50.852;8.098;2024-03-02T13:39:21;1.95;;;0.90;;
9789;SDS011;4934;50.852;8.098;2024-03-02T13:41:48;2.78;;;0.98;;
9789;SDS011;4934;50.852;8.098;2024-03-02T13:44:20;4.55;;;1.85;;
9789;SDS011;4934;50.852;8.098;2024-03-02T13:46:46;3.65;;;1.20;;
9789;SDS011;4934;50.852;8.098;2024-03-02T13:49:13;1.50;;;0.90;;
9789;SDS011;4934;50.852;8.098;2024-03-02T13:51:42;1.08;;;0.95;;
9789;SDS011;4934;50.852;8.098;2024-03-02T13:54:08;2.08;;;0.70;;
9789;SDS011;4934;50.852;8.098;2024-03-02T13:56:33;2.70;;;0.95;;
9789;SDS011;4934;50.852;8.098;2024-03-02T13:58:59;2.72;;;0.80;;
9789;SDS011;4934;50.852;8.098;2024-03-02T14:01:25;1.77;;;0.93;;
9789;SDS011;4934;50.852;8.098;2024-03-02T14:03:52;0.98;;;0.82;;
9789;SDS011;4934;50.852;8.098;2024-03-02T14:06:19;2.50;;;0.98;;
9789;SDS011;4934;50.852;8.098;2024-03-02T14:08:45;1.75;;;0.98;;
9789;SDS011;4934;50.852;8.098;2024-03-02T14:11:13;5.68;;;3.05;;
9789;SDS011;4934;50.852;8.098;2024-03-02T14:13:43;2.08;;;0.80;;
9789;SDS011;4934;50.852;8.098;2024-03-02T14:16:13;2.10;;;1.00;;
9789;SDS011;4934;50.852;8.098;2024-03-02T14:18:39;1.05;;;0.90;;
9789;SDS011;4934;50.852;8.098;2024-03-02T14:21:04;1.58;;;0.90;;
9789;SDS011;4934;50.852;8.098;2024-03-02T14:23:30;3.10;;;1.15;;
9789;SDS011;4934;50.852;8.098;2024-03-02T14:25:55;1.83;;;1.10;;
9789;SDS011;4934;50.852;8.098;2024-03-02T14:28:22;3.40;;;1.40;;
9789;SDS011;4934;50.852;8.098;2024-03-02T14:30:47;1.85;;;1.17;;
9789;SDS011;4934;50.852;8.098;2024-03-02T14:33:13;1.98;;;1.02;;
9789;SDS011;4934;50.852;8.098;2024-03-02T14:35:40;2.42;;;1.13;;
9789;SDS011;4934;50.852;8.098;2024-03-02T14:38:05;2.33;;;1.30;;
9789;SDS011;4934;50.852;8.098;2024-03-02T14:40:32;3.22;;;0.82;;
9789;SDS011;4934;50.852;8.098;2024-03-02T14:42:58;10.38;;;2.80;;
9789;SDS011;4934;50.852;8.098;2024-03-02T14:45:23;3.47;;;1.33;;
9789;SDS011;4934;50.852;8.098;2024-03-02T14:47:49;1.95;;;1.02;;
9789;SDS011;4934;50.852;8.098;2024-03-02T14:50:15;1.92;;;1.20;;
9789;SDS011;4934;50.852;8.098;2024-03-02T14:52:41;2.63;;;1.02;;
9789;SDS011;4934;50.852;8.098;2024-03-02T14:55:07;5.07;;;1.30;;
9789;SDS011;4934;50.852;8.098;2024-03-02T14:57:33;2.50;;;1.40;;
9789;SDS011;4934;50.852;8.098;2024-03-02T14:59:58;4.80;;;1.77;;
9789;SDS011;4934;50.852;8.098;2024-03-02T15:02:24;6.95;;;2.13;;
9789;SDS011;4934;50.852;8.098;2024-03-02T15:04:50;2.58;;;1.40;;
9789;SDS011;4934;50.852;8.098;2024-03-02T15:07:15;2.70;;;1.83;;
9789;SDS011;4934;50.852;8.098;2024-03-02T15:09:41;3.75;;;2.00;;
9789;SDS011;4934;50.852;8.098;2024-03-02T15:12:07;4.57;;;1.90;;
9789;SDS011;4934;50.852;8.098;2024-03-02T15:14:37;5.03;;;1.80;;